Time;durP1;ratioP1;P1;durP2;ratioP2;P2;SDS_P1;SDS_P2;PMS_P1;PMS_P2;Temp;Humidity;BMP_temperature;BMP_pressure;BME280_temperature;BME280_humidity;BME280_pressure;Samples;Min_cycle;Max_cycle;Signal;HPM_P1;HPM_P2
2023/02/07 00:00:46;;;;;;;0.40;0.40;;;-0.30;99.90;;;;;;5076632;28;20458;-83
2023/02/07 00:03:13;;;;;;;0.30;0.30;;;-0.40;99.90;;;;;;5076421;28;20440;-83
2023/02/07 00:05:40;;;;;;;0.30;0.30;;;-0.50;99.90;;;;;;5076588;28;20473;-82
2023/02/07 00:08:07;;;;;;;0.40;0.40;;;-0.50;99.90;;;;;;5076554;28;20446;-82
2023/02/07 00:10:35;;;;;;;0.40;0.40;;;-0.60;99.90;;;;;;5076222;28;20445;-83
2023/02/07 00:13:02;;;;;;;0.30;0.30;;;-0.60;99.90;;;;;;5076432;28;20456;-83
2023/02/07 00:15:29;;;;;;;1.90;0.77;;;-0.70;99.90;;;;;;5076390;28;20481;-83
2023/02/07 00:17:57;;;;;;;0.40;0.40;;;-0.70;99.90;;;;;;5076326;28;20481;-84
2023/02/07 00:20:24;;;;;;;0.30;0.30;;;-0.70;99.90;;;;;;5076400;28;20523;-83
2023/02/07 00:22:51;;;;;;;0.30;0.30;;;-0.80;99.90;;;;;;5076357;28;20445;-83
2023/02/07 00:25:18;;;;;;;0.30;0.30;;;-0.90;99.90;;;;;;5076331;28;20510;-83
2023/02/07 00:27:44;;;;;;;0.30;0.30;;;-0.90;99.90;;;;;;5076469;28;20458;-83
2023/02/07 00:30:12;;;;;;;0.50;0.50;;;-1.00;99.90;;;;;;5075936;28;20416;-83
2023/02/07 00:32:39;;;;;;;0.30;0.30;;;-1.00;99.90;;;;;;5076155;28;20451;-83
2023/02/07 00:35:08;;;;;;;0.30;0.30;;;-1.10;99.90;;;;;;5075650;28;20424;-84
2023/02/07 00:37:35;;;;;;;0.30;0.30;;;-1.20;99.90;;;;;;5075708;28;20985;-83
2023/02/07 00:40:02;;;;;;;0.30;0.30;;;-1.20;99.90;;;;;;5075676;28;20466;-84
2023/02/07 00:42:28;;;;;;;0.30;0.30;;;-1.20;99.90;;;;;;5075923;28;20435;-83
2023/02/07 00:44:55;;;;;;;0.40;0.40;;;-1.30;99.90;;;;;;5075943;28;20449;-84
2023/02/07 00:47:22;;;;;;;0.67;0.60;;;-1.40;99.90;;;;;;5075263;28;20476;-84
2023/02/07 00:49:49;;;;;;;0.30;0.30;;;-1.40;99.90;;;;;;5075642;28;20444;-84
2023/02/07 00:52:17;;;;;;;0.30;0.30;;;-1.50;99.90;;;;;;5075474;28;20456;-83
2023/02/07 00:54:44;;;;;;;0.33;0.33;;;-1.50;99.90;;;;;;5075800;28;20428;-83
2023/02/07 00:57:10;;;;;;;0.30;0.30;;;-1.50;99.90;;;;;;5075642;28;20465;-83
2023/02/07 00:59:37;;;;;;;0.30;0.30;;;-1.50;99.90;;;;;;5075357;28;20963;-83
2023/02/07 01:02:04;;;;;;;0.40;0.40;;;-1.50;99.90;;;;;;5075650;28;20453;-83
2023/02/07 01:04:31;;;;;;;0.30;0.30;;;-1.60;99.90;;;;;;5075557;28;20457;-84
2023/02/07 01:06:57;;;;;;;1.17;0.50;;;-1.60;99.90;;;;;;5075517;28;20443;-83
2023/02/07 01:09:25;;;;;;;0.30;0.30;;;-1.50;99.90;;;;;;5075532;28;20445;-83
2023/02/07 01:11:52;;;;;;;0.30;0.20;;;-1.60;99.90;;;;;;5075101;28;20945;-83
2023/02/07 01:14:19;;;;;;;0.40;0.33;;;-1.50;99.90;;;;;;5075444;28;20435;-84
2023/02/07 01:16:45;;;;;;;0.40;0.40;;;-1.60;99.90;;;;;;5075284;28;20433;-84
2023/02/07 01:19:13;;;;;;;0.70;0.53;;;-1.60;99.90;;;;;;5075292;28;20484;-83
2023/02/07 01:21:39;;;;;;;0.77;0.63;;;-1.60;99.90;;;;;;5075284;28;20545;-83
2023/02/07 01:24:07;;;;;;;0.40;0.40;;;-1.70;99.90;;;;;;5075267;28;20424;-83
2023/02/07 01:26:36;;;;;;;0.93;0.93;;;-1.70;99.90;;;;;;5075054;28;20448;-83
2023/02/07 01:29:03;;;;;;;0.90;0.90;;;-1.70;99.90;;;;;;5075154;28;20445;-83
2023/02/07 01:31:30;;;;;;;0.30;0.30;;;-1.80;99.90;;;;;;5075059;28;20457;-84
2023/02/07 01:33:59;;;;;;;0.30;0.20;;;-1.90;99.90;;;;;;5074893;28;20416;-81
2023/02/07 01:36:27;;;;;;;1.50;1.33;;;-1.90;99.90;;;;;;5074413;28;20459;-81
2023/02/07 01:38:54;;;;;;;0.30;0.30;;;-1.80;99.90;;;;;;5074882;28;20493;-80
2023/02/07 01:41:22;;;;;;;0.70;0.50;;;-1.90;99.90;;;;;;5074891;28;20426;-83
2023/02/07 01:44:00;;;;;;;1.27;1.17;;;-1.80;99.90;;;;;;5074809;28;20456;-81
2023/02/07 01:46:28;;;;;;;0.60;0.60;;;-1.80;99.90;;;;;;5074685;28;20444;-81
2023/02/07 01:48:57;;;;;;;0.30;0.20;;;-1.80;99.90;;;;;;5074787;28;20421;-81
2023/02/07 01:51:26;;;;;;;0.53;0.53;;;-1.80;99.90;;;;;;5074484;28;20445;-81
2023/02/07 01:53:57;;;;;;;1.03;0.90;;;-1.80;99.90;;;;;;5074593;28;20453;-80
2023/02/07 01:56:25;;;;;;;1.97;1.27;;;-1.60;99.90;;;;;;5074499;28;20461;-81
2023/02/07 01:58:54;;;;;;;0.30;0.30;;;-1.60;99.90;;;;;;5077017;28;20460;-80
2023/02/07 02:01:24;;;;;;;1.47;1.27;;;-1.50;99.90;;;;;;5074162;28;20910;-81
2023/02/07 02:03:54;;;;;;;0.30;0.30;;;-1.40;99.90;;;;;;5074304;28;20438;-81
2023/02/07 02:06:22;;;;;;;1.57;1.47;;;-1.50;99.90;;;;;;5074332;28;20440;-83
2023/02/07 02:08:51;;;;;;;0.40;0.40;;;-1.50;99.90;;;;;;5073986;28;20955;-81
2023/02/07 02:11:41;;;;;;;0.70;0.70;;;-1.50;99.90;;;;;;5074259;28;20445;-81
2023/02/07 02:14:23;;;;;;;0.40;0.40;;;-1.40;99.90;;;;;;5061343;28;20429;-81
2023/02/07 02:16:57;;;;;;;0.83;0.83;;;-1.30;99.90;;;;;;5074104;28;20465;-81
2023/02/07 02:20:04;;;;;;;0.30;0.30;;;-1.30;99.90;;;;;;5074058;28;20438;-81
2023/02/07 02:22:54;;;;;;;2.83;0.93;;;-1.30;99.90;;;;;;5065189;28;20424;-81
2023/02/07 02:26:12;;;;;;;0.30;0.30;;;-1.40;99.90;;;;;;5073993;28;20392;-81
2023/02/07 02:29:12;;;;;;;0.40;0.40;;;-1.40;99.90;;;;;;5073995;28;20432;-80
2023/02/07 02:31:57;;;;;;;1.37;1.07;;;-1.50;99.90;;;;;;5064642;28;20461;-81
2023/02/07 02:34:31;;;;;;;1.07;0.70;;;-1.60;99.90;;;;;;5073745;28;20796;-81
2023/02/07 02:37:06;;;;;;;0.30;0.30;;;-1.60;99.90;;;;;;5073424;28;20511;-81
2023/02/07 02:39:40;;;;;;;0.30;0.30;;;-1.70;99.90;;;;;;5073391;28;20435;-81
2023/02/07 02:42:12;;;;;;;0.70;0.70;;;-1.70;99.90;;;;;;5073788;28;20410;-81
2023/02/07 02:44:45;;;;;;;0.40;0.40;;;-1.70;99.90;;;;;;5073550;28;20951;-81
2023/02/07 02:47:11;;;;;;;0.30;0.30;;;-1.80;99.90;;;;;;5073544;28;20465;-81
2023/02/07 02:49:41;;;;;;;0.50;0.50;;;-1.90;99.90;;;;;;5073380;28;20815;-81
2023/02/07 02:52:08;;;;;;;0.60;0.60;;;-1.90;99.90;;;;;;5073509;28;20454;-80
2023/02/07 02:54:36;;;;;;;0.90;0.90;;;-2.00;99.90;;;;;;5073234;28;20446;-80
2023/02/07 02:57:30;;;;;;;0.53;0.53;;;-2.00;99.90;;;;;;5073430;28;20469;-81
2023/02/07 03:00:23;;;;;;;0.30;0.30;;;-2.10;99.90;;;;;;5073505;28;20440;-82
2023/02/07 03:02:59;;;;;;;3.13;2.93;;;-2.20;99.90;;;;;;5070867;28;20794;-81
2023/02/07 03:05:40;;;;;;;0.30;0.23;;;-2.20;99.90;;;;;;5073149;28;20416;-81
2023/02/07 03:08:19;;;;;;;2.20;2.00;;;-2.30;99.90;;;;;;5073427;28;20429;-81
2023/02/07 03:10:53;;;;;;;1.00;0.80;;;-2.30;99.90;;;;;;5072594;28;20388;-81
2023/02/07 03:13:27;;;;;;;0.40;0.40;;;-2.40;99.90;;;;;;5073101;28;20433;-81
2023/02/07 03:16:04;;;;;;;1.27;0.67;;;-2.40;99.90;;;;;;5073001;28;20469;-81
2023/02/07 03:18:40;;;;;;;0.30;0.30;;;-2.40;99.90;;;;;;5072998;28;20906;-81
2023/02/07 03:21:15;;;;;;;1.93;1.83;;;-2.50;99.90;;;;;;5073368;28;20442;-82
2023/02/07 03:23:44;;;;;;;1.23;1.23;;;-2.60;99.90;;;;;;5072957;28;20402;-82
2023/02/07 03:26:12;;;;;;;1.37;1.27;;;-2.60;99.90;;;;;;5073260;28;20447;-82
2023/02/07 03:28:40;;;;;;;0.30;0.30;;;-2.70;99.90;;;;;;5073257;28;20423;-82
2023/02/07 03:31:10;;;;;;;0.50;0.40;;;-2.60;99.90;;;;;;5073172;28;20445;-82
2023/02/07 03:33:38;;;;;;;0.30;0.30;;;-2.70;99.90;;;;;;5073167;28;20446;-81
2023/02/07 03:36:12;;;;;;;0.30;0.30;;;-2.60;99.90;;;;;;5072808;28;20500;-82
2023/02/07 03:38:39;;;;;;;2.87;1.23;;;-2.60;99.90;;;;;;5072752;28;20905;-81
2023/02/07 03:41:14;;;;;;;0.40;0.40;;;-2.60;99.90;;;;;;5072792;28;20959;-81
2023/02/07 03:43:43;;;;;;;0.77;0.77;;;-2.60;99.90;;;;;;5073040;28;20475;-81
2023/02/07 03:46:11;;;;;;;0.30;0.30;;;-2.60;99.90;;;;;;5072680;28;20959;-81
2023/02/07 03:48:38;;;;;;;0.30;0.30;;;-2.70;99.90;;;;;;5072630;28;20446;-81
2023/02/07 03:51:05;;;;;;;1.07;0.70;;;-2.60;99.90;;;;;;5072748;28;20821;-81
2023/02/07 03:53:33;;;;;;;0.40;0.40;;;-2.60;99.90;;;;;;5072919;28;20457;-81
2023/02/07 03:56:00;;;;;;;0.40;0.40;;;-2.60;99.90;;;;;;5072554;28;20469;-80
2023/02/07 03:58:27;;;;;;;0.30;0.30;;;-2.60;99.90;;;;;;5072552;28;20931;-81
2023/02/07 04:00:53;;;;;;;0.30;0.30;;;-2.60;99.90;;;;;;5072763;28;20460;-80
2023/02/07 04:03:20;;;;;;;0.30;0.30;;;-2.50;99.90;;;;;;5072592;28;20923;-80
2023/02/07 04:05:48;;;;;;;0.43;0.43;;;-2.60;99.90;;;;;;5072477;28;21007;-80
2023/02/07 04:08:15;;;;;;;0.60;0.60;;;-2.60;99.90;;;;;;5072488;28;20969;-80
2023/02/07 04:10:43;;;;;;;0.40;0.40;;;-2.60;99.90;;;;;;5072570;28;20450;-80
2023/02/07 04:13:09;;;;;;;0.63;0.63;;;-2.50;99.90;;;;;;5072843;28;20424;-81
2023/02/07 04:15:36;;;;;;;0.43;0.43;;;-2.50;99.90;;;;;;5072677;28;20424;-80
2023/02/07 04:18:03;;;;;;;1.13;1.00;;;-2.50;99.90;;;;;;5072460;28;20915;-81
2023/02/07 04:20:30;;;;;;;1.43;0.83;;;-2.50;99.90;;;;;;5072834;28;20452;-81
2023/02/07 04:22:56;;;;;;;0.40;0.40;;;-2.50;99.90;;;;;;5076437;28;20445;-81
2023/02/07 04:25:23;;;;;;;0.40;0.40;;;-2.50;99.90;;;;;;5076264;28;20449;-81
2023/02/07 04:27:51;;;;;;;0.40;0.30;;;-2.50;99.90;;;;;;5076284;28;20446;-80
2023/02/07 04:30:18;;;;;;;0.43;0.43;;;-2.50;99.90;;;;;;5076011;28;20813;-80
2023/02/07 04:32:45;;;;;;;0.80;0.80;;;-2.60;99.90;;;;;;5076218;28;20445;-80
2023/02/07 04:35:11;;;;;;;0.70;0.70;;;-2.60;99.90;;;;;;5075780;28;20443;-80
2023/02/07 04:37:39;;;;;;;0.30;0.30;;;-2.60;99.90;;;;;;5075743;28;20509;-81
2023/02/07 04:40:06;;;;;;;0.30;0.30;;;-2.60;99.90;;;;;;5076000;28;20463;-80
2023/02/07 04:42:33;;;;;;;0.40;0.40;;;-2.70;99.90;;;;;;5076020;28;20813;-82
2023/02/07 04:45:01;;;;;;;0.67;0.67;;;-2.70;99.90;;;;;;5075704;28;20946;-82
2023/02/07 04:47:28;;;;;;;0.30;0.30;;;-2.70;99.90;;;;;;5076112;28;20560;-82
2023/02/07 04:49:55;;;;;;;0.30;0.30;;;-2.70;99.90;;;;;;5075896;28;20437;-82
2023/02/07 04:52:22;;;;;;;0.30;0.30;;;-2.80;99.90;;;;;;5075902;28;20461;-82
2023/02/07 04:54:49;;;;;;;0.57;0.57;;;-2.80;99.90;;;;;;5075821;28;20419;-82
2023/02/07 04:57:16;;;;;;;0.50;0.50;;;-2.80;99.90;;;;;;5075747;28;20805;-82
2023/02/07 04:59:42;;;;;;;0.30;0.20;;;-2.70;99.90;;;;;;5075702;28;20476;-81
2023/02/07 05:02:11;;;;;;;0.30;0.30;;;-2.60;99.90;;;;;;5075747;28;20427;-80
2023/02/07 05:04:37;;;;;;;0.30;0.30;;;-2.70;99.90;;;;;;5075642;28;20453;-82
2023/02/07 05:07:04;;;;;;;1.37;0.77;;;-2.70;99.90;;;;;;5075264;28;20470;-82
2023/02/07 05:09:31;;;;;;;1.83;1.03;;;-2.70;99.90;;;;;;5075544;28;20419;-81
2023/02/07 05:11:57;;;;;;;0.40;0.40;;;-2.70;99.90;;;;;;5075188;28;20934;-80
2023/02/07 05:14:24;;;;;;;0.30;0.30;;;-2.80;99.90;;;;;;5075491;28;20420;-81
2023/02/07 05:16:51;;;;;;;0.37;0.37;;;-2.90;99.90;;;;;;5075051;28;20474;-81
2023/02/07 05:19:19;;;;;;;1.07;1.07;;;-2.80;99.90;;;;;;5075274;28;20441;-81
2023/02/07 05:21:46;;;;;;;0.30;0.30;;;-2.90;99.90;;;;;;5075846;28;20428;-80
2023/02/07 05:24:12;;;;;;;0.30;0.30;;;-2.90;99.90;;;;;;5075288;28;20469;-81
2023/02/07 05:26:39;;;;;;;0.77;0.77;;;-3.00;99.90;;;;;;5075147;28;20793;-81
2023/02/07 05:29:06;;;;;;;0.50;0.50;;;-3.00;99.90;;;;;;5074898;28;20446;-81
2023/02/07 05:34:18;;;;;;;0.30;0.30;;;-3.00;99.90;;;;;;5074736;28;20483;-80
2023/02/07 05:36:45;;;;;;;0.40;0.40;;;-3.00;99.90;;;;;;5074474;28;20460;-81
2023/02/07 05:39:12;;;;;;;0.50;0.50;;;-3.00;99.90;;;;;;5074962;28;20434;-81
2023/02/07 05:41:38;;;;;;;1.03;0.70;;;-3.00;99.90;;;;;;5074811;28;20481;-81
2023/02/07 05:44:05;;;;;;;1.37;1.23;;;-3.00;99.90;;;;;;5074532;28;20524;-80
2023/02/07 05:46:32;;;;;;;0.30;0.30;;;-3.00;99.90;;;;;;5074714;28;20439;-81
2023/02/07 05:48:59;;;;;;;0.40;0.40;;;-3.00;99.90;;;;;;5074719;28;20435;-81
2023/02/07 05:51:27;;;;;;;0.63;0.60;;;-3.00;99.90;;;;;;5074718;28;20419;-80
2023/02/07 05:53:54;;;;;;;0.87;0.87;;;-3.00;99.90;;;;;;5074638;28;20446;-80
2023/02/07 05:56:20;;;;;;;0.40;0.40;;;-3.10;99.90;;;;;;5074579;28;20469;-81
2023/02/07 05:58:47;;;;;;;0.30;0.30;;;-3.10;99.90;;;;;;5074603;28;20447;-84
2023/02/07 06:01:14;;;;;;;0.40;0.40;;;-3.10;99.90;;;;;;5075266;28;20479;-83
2023/02/07 06:03:40;;;;;;;0.30;0.30;;;-3.10;99.90;;;;;;5074476;28;20453;-81
2023/02/07 06:06:07;;;;;;;0.30;0.30;;;-3.10;99.90;;;;;;5074356;28;20470;-81
2023/02/07 06:08:36;;;;;;;0.30;0.30;;;-3.20;99.90;;;;;;5074124;28;20788;-81
2023/02/07 06:11:02;;;;;;;0.63;0.63;;;-3.10;99.90;;;;;;5074332;28;20449;-81
2023/02/07 06:13:29;;;;;;;0.30;0.30;;;-3.10;99.90;;;;;;5074292;28;20421;-81
2023/02/07 06:15:56;;;;;;;0.30;0.30;;;-3.10;99.90;;;;;;5074168;28;20469;-82
2023/02/07 06:18:23;;;;;;;0.47;0.47;;;-3.10;99.90;;;;;;5073942;28;20968;-83
2023/02/07 06:20:50;;;;;;;0.37;0.37;;;-3.10;99.90;;;;;;5073822;28;20455;-83
2023/02/07 06:23:17;;;;;;;0.63;0.63;;;-3.20;99.90;;;;;;5073822;28;20960;-83
2023/02/07 06:25:45;;;;;;;0.30;0.30;;;-3.10;99.90;;;;;;5074028;28;20553;-83
2023/02/07 06:28:12;;;;;;;0.37;0.37;;;-3.10;99.90;;;;;;5074059;28;20449;-84
2023/02/07 06:30:38;;;;;;;0.30;0.30;;;-3.10;99.90;;;;;;5073620;28;20428;-82
2023/02/07 06:33:05;;;;;;;0.40;0.40;;;-3.10;99.90;;;;;;5073904;28;20440;-81
2023/02/07 06:35:32;;;;;;;0.30;0.30;;;-3.20;99.90;;;;;;5073545;28;20485;-81
2023/02/07 06:37:58;;;;;;;0.40;0.40;;;-3.20;99.90;;;;;;5074626;28;20476;-83
2023/02/07 06:40:25;;;;;;;0.30;0.20;;;-3.20;99.90;;;;;;5073739;28;20481;-83
2023/02/07 06:42:54;;;;;;;0.30;0.30;;;-3.20;99.90;;;;;;5073516;28;20959;-83
2023/02/07 06:45:21;;;;;;;0.97;0.70;;;-3.20;99.90;;;;;;5073570;28;20448;-83
2023/02/07 06:47:47;;;;;;;0.40;0.40;;;-3.20;99.90;;;;;;5073726;28;20416;-83
2023/02/07 06:50:14;;;;;;;1.13;1.03;;;-3.30;99.90;;;;;;5073681;28;20445;-83
2023/02/07 06:52:41;;;;;;;0.30;0.30;;;-3.30;99.90;;;;;;5073656;28;20457;-83
2023/02/07 06:55:08;;;;;;;0.30;0.30;;;-3.30;99.90;;;;;;5073680;28;20450;-82
2023/02/07 06:57:35;;;;;;;0.40;0.40;;;-3.40;99.90;;;;;;5073530;28;20469;-81
2023/02/07 07:00:04;;;;;;;0.60;0.60;;;-3.40;99.90;;;;;;5073364;28;20473;-81
2023/02/07 07:02:30;;;;;;;0.37;0.37;;;-3.30;99.90;;;;;;5073624;28;20446;-81
2023/02/07 07:04:57;;;;;;;0.80;0.80;;;-3.40;99.90;;;;;;5073166;28;20912;-81
2023/02/07 07:07:24;;;;;;;0.30;0.30;;;-3.40;99.90;;;;;;5073433;28;20440;-81
2023/02/07 07:09:50;;;;;;;0.43;0.43;;;-3.50;99.90;;;;;;5073412;28;20446;-81
2023/02/07 07:12:17;;;;;;;0.73;0.73;;;-3.40;99.90;;;;;;5073141;28;20453;-81
2023/02/07 07:14:44;;;;;;;0.40;0.40;;;-3.40;99.90;;;;;;5073079;28;20449;-81
2023/02/07 07:17:14;;;;;;;0.67;0.60;;;-3.30;99.90;;;;;;5073252;28;20544;-81
2023/02/07 07:19:40;;;;;;;0.40;0.40;;;-3.20;99.90;;;;;;5072976;28;20991;-81
2023/02/07 07:22:07;;;;;;;0.40;0.40;;;-3.20;99.90;;;;;;5073166;28;20455;-81
2023/02/07 07:24:34;;;;;;;0.40;0.40;;;-3.20;99.90;;;;;;5072920;28;20975;-81
2023/02/07 07:27:00;;;;;;;0.80;0.43;;;-3.20;99.90;;;;;;5073156;28;20444;-81
2023/02/07 07:29:27;;;;;;;1.23;0.60;;;-3.10;99.90;;;;;;5072843;28;20441;-81
2023/02/07 07:31:54;;;;;;;0.30;0.30;;;-3.00;99.90;;;;;;5073160;28;20431;-81
2023/02/07 07:34:22;;;;;;;0.73;0.73;;;-3.00;99.90;;;;;;5073147;28;20421;-81
2023/02/07 07:36:49;;;;;;;0.63;0.63;;;-3.00;99.90;;;;;;5072663;28;20462;-81
2023/02/07 07:39:15;;;;;;;0.40;0.40;;;-2.90;99.90;;;;;;5073119;28;20453;-81
2023/02/07 07:41:42;;;;;;;0.50;0.50;;;-2.90;99.90;;;;;;5072972;28;20959;-81
2023/02/07 07:44:09;;;;;;;0.37;0.37;;;-2.90;99.90;;;;;;5073081;28;20449;-81
2023/02/07 07:46:36;;;;;;;0.40;0.40;;;-2.90;99.90;;;;;;5072643;28;20462;-77
2023/02/07 07:49:02;;;;;;;0.30;0.30;;;-2.80;99.90;;;;;;5072935;28;20460;-77
2023/02/07 07:51:30;;;;;;;0.80;0.80;;;-2.70;99.90;;;;;;5072960;28;20416;-77
2023/02/07 07:53:57;;;;;;;0.30;0.30;;;-2.70;99.90;;;;;;5072861;28;20449;-77
2023/02/07 07:56:24;;;;;;;0.63;0.63;;;-2.70;99.90;;;;;;5074225;28;20440;-77
2023/02/07 07:58:50;;;;;;;0.30;0.30;;;-2.60;99.90;;;;;;5076847;28;20449;-80
2023/02/07 08:01:17;;;;;;;0.80;0.80;;;-2.60;99.90;;;;;;5076388;28;21002;-77
2023/02/07 08:03:44;;;;;;;1.00;0.63;;;-2.60;99.90;;;;;;5076499;28;20407;-77
2023/02/07 08:06:10;;;;;;;0.40;0.40;;;-2.50;99.90;;;;;;5076274;28;20997;-77
2023/02/07 08:08:39;;;;;;;0.33;0.33;;;-2.50;99.90;;;;;;5076670;28;20404;-77
2023/02/07 08:11:08;;;;;;;0.40;0.40;;;-2.50;99.90;;;;;;5076261;28;20791;-77
2023/02/07 08:13:36;;;;;;;0.30;0.20;;;-2.40;99.90;;;;;;5076554;28;20795;-77
2023/02/07 08:16:03;;;;;;;0.30;0.30;;;-2.40;99.90;;;;;;5076408;28;20464;-77
2023/02/07 08:18:30;;;;;;;0.30;0.30;;;-2.40;99.90;;;;;;5076168;28;20438;-77
2023/02/07 08:20:56;;;;;;;0.40;0.40;;;-2.30;99.90;;;;;;5076209;28;20466;-77
2023/02/07 08:23:23;;;;;;;0.40;0.40;;;-2.20;99.90;;;;;;5076411;28;20400;-77
2023/02/07 08:25:51;;;;;;;0.40;0.40;;;-2.20;99.90;;;;;;5075972;28;20470;-77
2023/02/07 08:28:21;;;;;;;0.33;0.33;;;-2.20;99.90;;;;;;5076063;28;20419;-76
2023/02/07 08:30:48;;;;;;;0.70;0.70;;;-2.10;99.90;;;;;;5076263;28;20453;-76
2023/02/07 08:33:16;;;;;;;0.30;0.30;;;-2.00;99.90;;;;;;5075888;28;20945;-77
2023/02/07 08:35:43;;;;;;;0.77;0.77;;;-1.90;99.90;;;;;;5075692;28;20805;-76
2023/02/07 08:38:10;;;;;;;0.30;0.30;;;-1.80;99.90;;;;;;5075881;28;20444;-76
2023/02/07 08:40:37;;;;;;;0.40;0.40;;;-1.70;99.90;;;;;;5075652;28;20967;-76
2023/02/07 08:43:11;;;;;;;0.40;0.40;;;-1.60;99.90;;;;;;5075994;28;20457;-76
2023/02/07 08:45:37;;;;;;;0.60;0.60;;;-1.50;99.90;;;;;;5076040;28;20441;-76
2023/02/07 08:48:04;;;;;;;0.40;0.40;;;-1.40;99.90;;;;;;5075645;28;20426;-76
2023/02/07 08:50:31;;;;;;;0.40;0.40;;;-1.20;99.90;;;;;;5075796;28;20464;-76
2023/02/07 08:52:58;;;;;;;0.30;0.30;;;-1.10;99.90;;;;;;5075861;28;20423;-76
2023/02/07 08:55:25;;;;;;;0.60;0.40;;;-0.90;99.90;;;;;;5075803;28;20457;-76
2023/02/07 08:57:52;;;;;;;0.30;0.30;;;-0.70;99.90;;;;;;5075827;28;20808;-76
2023/02/07 09:00:20;;;;;;;0.93;0.93;;;-0.40;99.90;;;;;;5075669;28;20812;-78
2023/02/07 09:02:47;;;;;;;1.83;1.70;;;0.00;99.90;;;;;;5075651;28;20428;-78
2023/02/07 09:05:13;;;;;;;1.93;0.70;;;0.50;99.90;;;;;;5075366;28;20424;-79
2023/02/07 09:07:40;;;;;;;0.40;0.40;;;1.10;99.90;;;;;;5075484;28;20443;-79
2023/02/07 09:10:09;;;;;;;0.40;0.40;;;2.00;99.90;;;;;;5075539;28;20523;-79
2023/02/07 09:12:36;;;;;;;0.50;0.50;;;2.80;99.90;;;;;;5075474;28;20431;-78
2023/02/07 09:15:03;;;;;;;4.30;1.50;;;3.70;99.90;;;;;;5075121;28;20839;-78
2023/02/07 09:17:32;;;;;;;0.97;0.73;;;4.60;99.90;;;;;;5075056;28;21003;-79
2023/02/07 09:19:59;;;;;;;0.53;0.53;;;5.30;99.90;;;;;;5075327;28;20449;-79
2023/02/07 09:22:26;;;;;;;1.20;1.20;;;5.90;99.90;;;;;;5075274;28;20843;-79
2023/02/07 09:24:53;;;;;;;0.90;0.90;;;6.30;99.90;;;;;;5074950;28;20963;-79
2023/02/07 09:27:19;;;;;;;0.80;0.80;;;6.40;99.90;;;;;;5075191;28;20473;-79
2023/02/07 09:29:46;;;;;;;1.77;0.97;;;7.30;99.70;;;;;;5074801;28;20449;-79
2023/02/07 09:32:13;;;;;;;2.00;0.97;;;8.30;97.20;;;;;;5075121;28;20441;-79
2023/02/07 09:34:41;;;;;;;5.60;1.20;;;8.60;92.30;;;;;;5075059;28;20472;-79
2023/02/07 09:37:08;;;;;;;0.40;0.30;;;8.70;89.00;;;;;;5074572;28;20482;-79
2023/02/07 09:39:37;;;;;;;0.50;0.50;;;9.00;88.80;;;;;;5074693;28;20932;-79
2023/02/07 09:42:13;;;;;;;1.90;0.50;;;9.70;85.20;;;;;;5074529;28;20840;-79
2023/02/07 09:44:53;;;;;;;1.00;1.00;;;10.20;81.70;;;;;;5074631;28;21027;-79
2023/02/07 09:47:22;;;;;;;2.40;0.83;;;10.40;77.30;;;;;;5074829;28;20469;-78
2023/02/07 09:49:54;;;;;;;1.97;1.50;;;10.90;76.20;;;;;;5074754;28;20462;-78
2023/02/07 09:52:26;;;;;;;1.80;1.10;;;11.40;75.40;;;;;;5074773;28;20438;-78
2023/02/07 09:54:56;;;;;;;2.37;2.17;;;12.10;71.90;;;;;;5074715;28;20434;-78
2023/02/07 09:57:26;;;;;;;8.27;1.87;;;12.30;67.40;;;;;;5074591;28;20824;-78
2023/02/07 09:59:58;;;;;;;1.13;0.97;;;12.50;63.60;;;;;;5074738;28;20434;-78
2023/02/07 10:02:31;;;;;;;2.87;1.17;;;11.40;62.00;;;;;;5074492;28;20564;-78
2023/02/07 10:05:03;;;;;;;1.47;1.10;;;10.30;66.10;;;;;;5074398;28;20434;-77
2023/02/07 10:07:31;;;;;;;3.10;0.80;;;9.80;69.20;;;;;;5074352;28;20461;-78
2023/02/07 10:09:58;;;;;;;1.00;0.90;;;9.50;69.40;;;;;;5074384;28;20469;-78
2023/02/07 10:12:51;;;;;;;4.90;1.43;;;8.60;70.10;;;;;;5074315;28;20453;-78
2023/02/07 10:15:35;;;;;;;1.10;1.10;;;9.00;70.20;;;;;;5063776;28;20454;-78
2023/02/07 10:18:28;;;;;;;1.53;1.43;;;9.40;68.80;;;;;;5074168;28;20426;-77
2023/02/07 10:21:03;;;;;;;6.37;2.00;;;9.90;69.60;;;;;;5074035;28;20441;-77
2023/02/07 10:23:39;;;;;;;0.90;0.90;;;10.70;66.80;;;;;;5074163;28;20429;-78
2023/02/07 10:26:16;;;;;;;3.37;0.90;;;11.30;64.60;;;;;;5074043;28;20476;-77
2023/02/07 10:29:13;;;;;;;1.20;0.90;;;11.30;61.70;;;;;;5073762;28;20436;-77
2023/02/07 10:31:44;;;;;;;1.90;1.13;;;10.70;62.90;;;;;;5073632;28;20792;-77
2023/02/07 10:34:14;;;;;;;1.27;1.13;;;10.40;63.20;;;;;;5073861;28;20433;-77
2023/02/07 10:36:46;;;;;;;5.30;2.17;;;10.00;64.60;;;;;;5073428;28;20488;-77
2023/02/07 10:39:18;;;;;;;4.00;1.10;;;9.70;67.00;;;;;;5073910;28;20422;-77
2023/02/07 10:41:45;;;;;;;1.23;1.13;;;8.90;67.00;;;;;;5073757;28;20489;-77
2023/02/07 10:44:14;;;;;;;0.70;0.63;;;8.50;70.30;;;;;;5073803;28;20445;-77
2023/02/07 10:46:43;;;;;;;0.53;0.53;;;7.60;70.00;;;;;;5073702;28;20470;-77
2023/02/07 10:49:20;;;;;;;3.37;0.67;;;6.60;71.50;;;;;;5073671;28;20454;-77
2023/02/07 10:51:49;;;;;;;1.37;0.70;;;5.90;76.00;;;;;;5073725;28;20475;-77
2023/02/07 10:54:19;;;;;;;0.70;0.70;;;5.40;77.60;;;;;;5073718;28;20426;-77
2023/02/07 10:56:49;;;;;;;1.30;1.07;;;5.00;78.70;;;;;;5073181;28;20996;-77
2023/02/07 10:59:37;;;;;;;0.67;0.67;;;4.80;81.50;;;;;;5073893;28;20839;-77
2023/02/07 11:02:24;;;;;;;0.70;0.70;;;4.60;80.80;;;;;;5073519;28;20465;-77
2023/02/07 11:04:51;;;;;;;3.73;0.90;;;4.90;82.80;;;;;;5073067;28;20964;-78
2023/02/07 11:07:21;;;;;;;1.17;1.00;;;4.90;81.60;;;;;;5073118;28;20494;-78
2023/02/07 11:09:48;;;;;;;0.53;0.53;;;4.80;80.30;;;;;;5073540;28;20867;-77
2023/02/07 11:12:19;;;;;;;1.67;0.90;;;4.60;81.00;;;;;;5073454;28;20438;-77
2023/02/07 11:15:01;;;;;;;0.87;0.50;;;4.40;79.50;;;;;;5073434;28;20433;-78
2023/02/07 11:17:28;;;;;;;0.43;0.43;;;4.10;81.80;;;;;;5073351;28;20466;-78
2023/02/07 11:19:55;;;;;;;1.00;0.90;;;4.00;81.90;;;;;;5073333;28;20446;-78
2023/02/07 11:22:25;;;;;;;0.57;0.43;;;3.90;81.90;;;;;;5073223;28;20485;-78
2023/02/07 11:24:53;;;;;;;0.73;0.73;;;3.70;81.30;;;;;;5073004;28;20464;-78
2023/02/07 11:27:21;;;;;;;1.60;1.50;;;3.60;82.30;;;;;;5073229;28;20468;-77
2023/02/07 11:29:52;;;;;;;0.50;0.50;;;3.50;81.90;;;;;;5073276;28;20453;-78
2023/02/07 11:32:19;;;;;;;0.77;0.43;;;3.40;82.10;;;;;;5076584;28;20457;-78
2023/02/07 11:34:52;;;;;;;0.43;0.43;;;3.30;84.50;;;;;;5077058;28;20976;-78
2023/02/07 11:37:28;;;;;;;6.33;1.40;;;3.30;83.80;;;;;;5077155;28;20889;-77
2023/02/07 11:39:57;;;;;;;0.60;0.60;;;3.30;84.10;;;;;;5077345;28;20425;-78
2023/02/07 11:42:26;;;;;;;2.57;0.90;;;3.20;85.00;;;;;;5076863;28;20485;-78
2023/02/07 11:44:53;;;;;;;0.60;0.50;;;3.20;84.70;;;;;;5077131;28;20944;-78
2023/02/07 11:47:22;;;;;;;0.63;0.40;;;3.30;84.60;;;;;;5077145;28;20834;-78
2023/02/07 11:49:51;;;;;;;2.60;0.80;;;3.20;83.20;;;;;;5077109;28;20418;-77
2023/02/07 11:52:19;;;;;;;1.00;1.00;;;3.20;85.20;;;;;;5077278;28;20492;-77
2023/02/07 11:54:52;;;;;;;0.57;0.57;;;3.00;82.40;;;;;;5077026;28;20442;-78
2023/02/07 11:57:20;;;;;;;0.90;0.90;;;2.90;84.10;;;;;;5076944;28;20476;-78
2023/02/07 11:59:54;;;;;;;0.50;0.50;;;2.90;85.70;;;;;;5076866;28;20475;-78
2023/02/07 12:02:23;;;;;;;0.40;0.40;;;2.90;85.70;;;;;;5077072;28;20556;-78
2023/02/07 12:04:53;;;;;;;1.13;0.77;;;2.90;86.50;;;;;;5076797;28;20449;-78
2023/02/07 12:07:25;;;;;;;12.50;1.23;;;2.90;85.90;;;;;;5076698;28;20920;-77
2023/02/07 12:09:56;;;;;;;0.43;0.43;;;2.90;88.60;;;;;;5076424;28;20469;-77
2023/02/07 12:12:29;;;;;;;5.70;0.73;;;2.80;87.00;;;;;;5076401;28;20841;-78
2023/02/07 12:15:01;;;;;;;0.50;0.50;;;2.70;87.90;;;;;;5076887;28;20426;-77
2023/02/07 12:17:35;;;;;;;0.37;0.37;;;2.70;88.80;;;;;;5076220;28;21020;-77
2023/02/07 12:20:08;;;;;;;0.63;0.63;;;2.80;87.50;;;;;;5076486;28;20456;-77
2023/02/07 12:22:40;;;;;;;0.73;0.73;;;2.70;85.50;;;;;;5076397;28;20511;-77
2023/02/07 12:25:16;;;;;;;1.13;0.50;;;2.70;85.20;;;;;;5076470;28;20433;-77
2023/02/07 12:27:47;;;;;;;0.63;0.63;;;2.50;85.50;;;;;;5076378;28;20485;-78
2023/02/07 12:30:17;;;;;;;0.40;0.40;;;2.50;86.50;;;;;;5076906;28;20437;-77
2023/02/07 12:32:53;;;;;;;0.60;0.40;;;2.50;84.50;;;;;;5076057;28;21007;-78
2023/02/07 12:35:26;;;;;;;0.50;0.40;;;2.50;83.30;;;;;;5076057;28;20514;-78
2023/02/07 12:38:00;;;;;;;0.37;0.37;;;2.50;81.40;;;;;;5076264;28;20438;-78
2023/02/07 12:40:34;;;;;;;1.67;1.40;;;2.60;82.40;;;;;;5075891;28;20989;-78
2023/02/07 12:43:09;;;;;;;0.73;0.73;;;2.60;81.20;;;;;;5075676;28;20500;-77
2023/02/07 12:45:50;;;;;;;0.50;0.50;;;2.50;81.30;;;;;;5076055;28;20433;-77
2023/02/07 12:48:26;;;;;;;0.30;0.20;;;2.60;80.50;;;;;;5076036;28;20404;-77
2023/02/07 12:51:06;;;;;;;0.33;0.30;;;2.60;80.20;;;;;;5076069;28;20529;-77
2023/02/07 12:53:45;;;;;;;0.80;0.40;;;2.60;78.80;;;;;;5075919;28;20426;-77
2023/02/07 12:56:27;;;;;;;2.00;0.50;;;2.60;77.60;;;;;;5075819;28;20473;-77
2023/02/07 12:59:00;;;;;;;0.97;0.80;;;2.60;78.50;;;;;;5075721;28;20434;-77
2023/02/07 13:01:35;;;;;;;1.03;0.60;;;2.60;78.20;;;;;;5075808;28;20438;-77
2023/02/07 13:04:33;;;;;;;1.90;0.47;;;2.60;78.00;;;;;;5075784;28;20432;-77
2023/02/07 13:07:15;;;;;;;0.30;0.30;;;2.50;77.80;;;;;;5075668;28;20469;-77